createdAt,value
2023-04-24T00:02:16.272Z,98433.58
2023-04-24T00:11:48.885Z,98435.73
2023-04-24T00:21:24.466Z,98426.09
2023-04-24T00:30:56.374Z,98418.47
2023-04-24T00:40:30.385Z,98405.64
2023-04-24T00:50:04.653Z,98389.77
2023-04-24T00:59:40.279Z,98390.92
2023-04-24T01:09:12.600Z,98386.48
2023-04-24T01:18:48.565Z,98378.37
2023-04-24T01:28:20.759Z,98378.20
2023-04-24T01:37:55.090Z,98382.00
2023-04-24T01:47:31.045Z,98394.52
2023-04-24T01:57:04.291Z,98417.50
2023-04-24T02:06:36.154Z,98401.90
2023-04-24T02:16:11.664Z,98407.88
2023-04-24T02:25:45.857Z,98410.89
2023-04-24T02:35:18.427Z,98416.86
2023-04-24T02:44:52.572Z,98418.25
2023-04-24T02:54:26.737Z,98412.81
2023-04-24T03:04:01.379Z,98417.00
2023-04-24T03:13:36.881Z,98437.81
2023-04-24T03:23:09.784Z,98445.75
2023-04-24T03:32:43.920Z,98454.56
2023-04-24T03:42:17.657Z,98457.63
2023-04-24T03:51:51.595Z,98475.83
2023-04-24T04:01:26.774Z,98494.91
2023-04-24T04:11:00.410Z,98494.56
2023-04-24T04:20:31.909Z,98497.17
2023-04-24T04:30:07.028Z,98505.87
2023-04-24T04:39:39.012Z,98513.72
2023-04-24T04:49:14.321Z,98529.66
2023-04-24T04:58:46.606Z,98539.25
2023-04-24T05:08:26.905Z,98566.75
2023-04-24T05:17:55.148Z,98580.28
2023-04-24T05:27:28.328Z,98585.66
2023-04-24T05:37:02.448Z,98603.03
2023-04-24T05:46:38.081Z,98603.32
2023-04-24T05:47:40.473Z,98607.44
2023-04-24T05:57:14.788Z,98626.12
2023-04-24T06:06:50.917Z,98622.53
2023-04-24T06:16:25.362Z,98633.20
2023-04-24T06:26:00.051Z,98644.23
2023-04-24T06:35:32.720Z,98651.55
2023-04-24T06:45:07.418Z,98654.43
2023-04-24T06:46:09.932Z,98655.88
2023-04-24T06:55:43.257Z,98656.99
2023-04-24T06:56:47.335Z,98659.96
2023-04-24T06:57:49.740Z,98658.16
2023-04-24T06:58:53.762Z,98655.44
2023-04-24T06:59:57.656Z,98658.13
2023-04-24T07:01:01.563Z,98654.73
2023-04-24T07:02:03.990Z,98650.76
2023-04-24T07:11:36.755Z,98655.94
2023-04-24T07:12:39.222Z,98645.23
2023-04-24T07:13:41.703Z,98648.73
2023-04-24T07:14:45.760Z,98641.78
2023-04-24T07:15:49.752Z,98649.38
2023-04-24T07:16:51.997Z,98652.66
2023-04-24T07:26:26.345Z,98649.03
2023-04-24T07:27:28.741Z,98648.53
2023-04-24T07:28:31.185Z,98652.97
2023-04-24T07:29:35.221Z,98646.70
2023-04-24T07:30:39.169Z,98650.51
2023-04-24T07:31:41.559Z,98653.70
2023-04-24T07:32:43.981Z,98655.25
2023-04-24T07:33:46.418Z,98650.84
2023-04-24T07:34:48.865Z,98652.56
2023-04-24T07:35:51.291Z,98650.47
2023-04-24T07:36:55.343Z,98652.16
2023-04-24T07:37:59.252Z,98656.40
2023-04-24T07:39:01.577Z,98645.35
2023-04-24T07:40:04.002Z,98648.84
2023-04-24T07:41:06.484Z,98648.89
2023-04-24T07:42:11.515Z,98655.78
2023-04-24T07:43:15.367Z,98660.71
2023-04-24T07:44:17.685Z,98659.67
2023-04-24T07:45:21.743Z,98654.52
2023-04-24T07:46:25.779Z,98663.49
2023-04-24T07:47:28.063Z,98660.40
2023-04-24T07:48:30.506Z,98660.63
2023-04-24T07:49:34.531Z,98656.67
2023-04-24T07:50:36.768Z,98654.62
2023-04-24T07:51:39.267Z,98657.01
2023-04-24T07:52:41.647Z,98665.38
2023-04-24T07:53:45.685Z,98660.05
2023-04-24T07:54:48.022Z,98665.79
2023-04-24T07:55:50.435Z,98664.33
2023-04-24T07:56:52.867Z,98677.90
2023-04-24T07:57:56.965Z,98662.44
2023-04-24T07:58:59.210Z,98658.50
2023-04-24T08:08:31.007Z,98655.00
2023-04-24T08:09:33.500Z,98658.29
2023-04-24T08:10:37.599Z,98669.22
2023-04-24T08:11:41.483Z,98665.28
2023-04-24T08:12:45.373Z,98662.70
2023-04-24T08:13:49.334Z,98662.30
2023-04-24T08:14:51.623Z,98666.42
2023-04-24T08:15:54.133Z,98667.78
2023-04-24T08:16:56.575Z,98663.56
2023-04-24T08:18:00.651Z,98674.58
2023-04-24T08:19:04.550Z,98665.22
2023-04-24T08:20:08.482Z,98669.28
2023-04-24T08:21:12.385Z,98673.75
2023-04-24T08:22:16.327Z,98675.38
2023-04-24T08:23:18.635Z,98686.27
2023-04-24T08:24:21.060Z,98679.92
2023-04-24T08:25:23.563Z,98670.27
2023-04-24T08:26:27.611Z,98679.16
2023-04-24T08:27:29.955Z,98695.01
2023-04-24T08:28:33.995Z,98694.83
2023-04-24T08:29:36.371Z,98685.70
2023-04-24T08:30:40.431Z,98699.63
2023-04-24T08:31:44.498Z,98695.35
2023-04-24T08:32:48.356Z,98686.72
2023-04-24T08:33:50.599Z,98692.96
2023-04-24T08:34:54.624Z,98680.80
2023-04-24T08:35:58.601Z,98689.06
2023-04-24T08:37:00.975Z,98695.63
2023-04-24T08:38:04.978Z,98690.39
2023-04-24T08:39:07.220Z,98686.77
2023-04-24T08:40:11.354Z,98697.41
2023-04-24T08:41:13.616Z,98692.63
2023-04-24T08:42:16.115Z,98693.77
2023-04-24T08:43:21.142Z,98696.35
2023-04-24T08:44:23.388Z,98694.63
2023-04-24T08:45:25.793Z,98702.16
2023-04-24T08:46:28.294Z,98713.80
2023-04-24T08:47:32.338Z,98703.94
2023-04-24T08:48:34.588Z,98705.89
2023-04-24T08:49:38.632Z,98724.34
2023-04-24T08:50:40.872Z,98702.63
2023-04-24T08:51:44.919Z,98721.52
2023-04-24T08:52:47.282Z,98719.16
2023-04-24T08:53:49.727Z,98719.23
2023-04-24T08:54:52.203Z,98725.50
2023-04-24T08:55:56.293Z,98725.67
2023-04-24T08:56:58.597Z,98729.77
2023-04-24T08:58:02.644Z,98733.15
2023-04-24T08:59:06.498Z,98724.55
2023-04-24T09:00:11.120Z,98721.28
2023-04-24T09:01:11.336Z,98725.59
2023-04-24T09:02:13.791Z,98725.50
2023-04-24T09:03:16.291Z,98721.25
2023-04-24T09:04:18.743Z,98725.77
2023-04-24T09:05:21.033Z,98736.16
2023-04-24T09:06:23.466Z,98733.13
2023-04-24T09:07:27.570Z,98728.11
2023-04-24T09:08:29.843Z,98727.63
2023-04-24T09:09:32.279Z,98720.47
2023-04-24T09:10:36.418Z,98718.81
2023-04-24T09:11:40.375Z,98724.00
2023-04-24T09:12:42.703Z,98731.97
2023-04-24T09:13:45.092Z,98725.98
2023-04-24T09:14:49.131Z,98725.75
2023-04-24T09:15:51.477Z,98729.66
2023-04-24T09:16:55.538Z,98736.03
2023-04-24T09:17:57.870Z,98739.25
2023-04-24T09:19:01.903Z,98726.76
2023-04-24T09:20:04.234Z,98741.07
2023-04-24T09:21:08.274Z,98740.77
2023-04-24T09:22:10.571Z,98745.78
2023-04-24T09:23:15.681Z,98748.53
2023-04-24T09:24:17.950Z,98735.43
2023-04-24T09:25:20.221Z,98738.71
2023-04-24T09:26:22.673Z,98736.66
2023-04-24T09:27:26.751Z,98747.50
2023-04-24T09:28:29.165Z,98758.33
2023-04-24T09:29:31.550Z,98750.47
2023-04-24T09:30:35.560Z,98752.69
2023-04-24T09:31:39.659Z,98742.98
2023-04-24T09:32:43.591Z,98748.03
2023-04-24T09:33:47.504Z,98748.28
2023-04-24T09:34:51.460Z,98748.50
2023-04-24T09:35:55.421Z,98754.47
2023-04-24T09:36:57.836Z,98761.88
2023-04-24T09:38:00.227Z,98753.17
2023-04-24T09:39:02.763Z,98761.36
2023-04-24T09:40:05.100Z,98751.19
2023-04-24T09:41:07.587Z,98776.88
2023-04-24T09:42:10.038Z,98757.41
2023-04-24T09:43:14.114Z,98772.89
2023-04-24T09:44:16.558Z,98770.84
2023-04-24T09:45:18.936Z,98770.34
2023-04-24T09:46:23.088Z,98767.12
2023-04-24T09:47:25.422Z,98772.44
2023-04-24T09:48:29.398Z,98788.52
2023-04-24T09:49:31.746Z,98773.40
2023-04-24T09:50:35.745Z,98770.03
2023-04-24T09:51:38.107Z,98780.49
2023-04-24T09:52:42.174Z,98787.07
2023-04-24T09:53:44.533Z,98792.45
2023-04-24T09:54:46.984Z,98791.41
2023-04-24T09:55:49.339Z,98779.05
2023-04-24T09:56:51.782Z,98780.30
2023-04-24T09:57:54.238Z,98785.27
2023-04-24T09:58:59.393Z,98792.02
2023-04-24T10:00:03.176Z,98790.63
2023-04-24T10:01:05.518Z,98791.73
2023-04-24T10:02:09.631Z,98786.00
2023-04-24T10:03:12.055Z,98787.95
2023-04-24T10:04:14.460Z,98791.66
2023-04-24T10:05:18.477Z,98798.02
2023-04-24T10:06:20.904Z,98786.22
2023-04-24T10:07:23.380Z,98789.23
2023-04-24T10:08:25.861Z,98787.63
2023-04-24T10:09:28.327Z,98792.46
2023-04-24T10:10:30.851Z,98786.84
2023-04-24T10:11:33.254Z,98797.06
2023-04-24T10:12:37.360Z,98793.96
2023-04-24T10:13:39.695Z,98791.23
2023-04-24T10:14:44.481Z,98797.13
2023-04-24T10:15:46.174Z,98797.21
2023-04-24T10:16:48.558Z,98801.20
2023-04-24T10:17:51.057Z,98790.84
2023-04-24T10:18:55.119Z,98799.74
2023-04-24T10:19:59.220Z,98799.25
2023-04-24T10:21:01.564Z,98790.91
2023-04-24T10:22:07.058Z,98807.05
2023-04-24T10:23:09.582Z,98799.70
2023-04-24T10:24:13.459Z,98790.88
2023-04-24T10:25:15.768Z,98802.97
2023-04-24T10:26:19.789Z,98800.47
2023-04-24T10:27:23.768Z,98804.32
2023-04-24T10:28:26.142Z,98806.50
2023-04-24T10:29:28.593Z,98807.67
2023-04-24T10:30:31.066Z,98810.57
2023-04-24T10:31:33.518Z,98811.78
2023-04-24T10:32:35.950Z,98823.66
2023-04-24T10:33:38.393Z,98821.71
2023-04-24T10:34:40.870Z,98818.60
2023-04-24T10:35:43.269Z,98826.42
2023-04-24T10:36:45.689Z,98819.99
2023-04-24T10:37:48.122Z,98833.88
2023-04-24T10:38:52.139Z,98836.16
2023-04-24T10:39:54.552Z,98842.38
2023-04-24T10:40:57.025Z,98849.02
2023-04-24T10:41:59.432Z,98849.55
2023-04-24T10:43:03.518Z,98851.67
2023-04-24T10:44:05.755Z,98855.30
2023-04-24T10:45:08.237Z,98854.75
2023-04-24T10:46:10.648Z,98864.80
2023-04-24T10:47:14.665Z,98864.12
2023-04-24T10:48:17.016Z,98858.53
2023-04-24T10:49:21.012Z,98860.92
2023-04-24T10:50:23.336Z,98860.17
2023-04-24T10:51:25.828Z,98861.96
2023-04-24T10:52:28.247Z,98866.23
2023-04-24T10:53:30.701Z,98866.76
2023-04-24T10:54:33.138Z,98868.35
2023-04-24T10:55:37.212Z,98864.89
2023-04-24T10:56:41.059Z,98871.30
2023-04-24T10:57:45.196Z,98871.73
2023-04-24T10:58:47.374Z,98872.07
2023-04-24T10:59:51.306Z,98873.52
2023-04-24T11:00:55.210Z,98873.30
2023-04-24T11:01:59.063Z,98872.14
2023-04-24T11:03:01.505Z,98875.86
2023-04-24T11:04:03.919Z,98874.55
2023-04-24T11:05:07.797Z,98879.02
2023-04-24T11:06:10.123Z,98875.15
2023-04-24T11:07:14.139Z,98877.15
2023-04-24T11:08:18.273Z,98877.41
2023-04-24T11:09:22.173Z,98879.30
2023-04-24T11:10:26.274Z,98886.00
2023-04-24T11:19:56.295Z,98900.20
2023-04-24T11:20:58.554Z,98894.50
2023-04-24T11:22:00.987Z,98896.48
2023-04-24T11:23:03.458Z,98896.96
2023-04-24T11:24:05.943Z,98907.66
2023-04-24T11:25:08.344Z,98906.82
2023-04-24T11:26:10.809Z,98900.59
2023-04-24T11:27:13.280Z,98895.16
2023-04-24T11:28:15.684Z,98886.50
2023-04-24T11:29:20.375Z,98885.50
2023-04-24T11:30:22.078Z,98891.67
2023-04-24T11:31:26.144Z,98892.34
2023-04-24T11:32:30.065Z,98893.52
2023-04-24T11:33:33.934Z,98888.39
2023-04-24T11:34:36.248Z,98891.56
2023-04-24T11:35:38.699Z,98877.31
2023-04-24T11:36:41.125Z,98880.59
2023-04-24T11:37:45.303Z,98880.23
2023-04-24T11:38:49.142Z,98883.01
2023-04-24T11:39:51.403Z,98882.03
2023-04-24T11:40:54.836Z,98875.08
2023-04-24T11:41:57.188Z,98873.70
2023-04-24T11:42:59.725Z,98873.99
2023-04-24T11:44:02.439Z,98881.64
2023-04-24T11:45:06.481Z,98876.62
2023-04-24T11:46:08.811Z,98876.22
2023-04-24T11:47:12.845Z,98874.59
2023-04-24T11:48:16.797Z,98877.13
2023-04-24T11:49:19.306Z,98877.48
2023-04-24T11:50:21.791Z,98876.45
2023-04-24T11:51:27.496Z,98879.00
2023-04-24T11:52:29.944Z,98873.28
2023-04-24T11:53:32.323Z,98873.56
2023-04-24T11:54:34.779Z,98875.05
2023-04-24T11:55:38.854Z,98879.77
2023-04-24T11:56:41.288Z,98883.70
2023-04-24T11:57:49.340Z,98890.37
2023-04-24T11:58:53.107Z,98870.14
2023-04-24T11:59:57.007Z,98878.32
2023-04-24T12:00:59.580Z,98883.25
2023-04-24T12:02:03.417Z,98876.45
2023-04-24T12:03:07.082Z,98874.13
2023-04-24T12:04:19.297Z,98874.64
2023-04-24T12:05:21.135Z,98892.76
2023-04-24T12:06:23.396Z,98873.42
2023-04-24T12:07:27.674Z,98875.94
2023-04-24T12:08:34.601Z,98880.67
2023-04-24T12:09:37.985Z,98877.91
2023-04-24T12:10:42.856Z,98876.23
2023-04-24T12:11:46.618Z,98873.20
2023-04-24T12:12:50.696Z,98877.02
2023-04-24T12:13:53.002Z,98879.13
2023-04-24T12:14:55.461Z,98888.06
2023-04-24T12:15:59.592Z,98880.09
2023-04-24T12:17:03.512Z,98887.48
2023-04-24T12:18:05.866Z,98873.42
2023-04-24T12:19:09.947Z,98876.17
2023-04-24T12:20:13.861Z,98887.30
2023-04-24T12:21:16.097Z,98888.08
2023-04-24T12:22:20.401Z,98886.25
2023-04-24T12:23:22.707Z,98883.27
2023-04-24T12:24:26.805Z,98891.00
2023-04-24T12:25:29.165Z,98888.59
2023-04-24T12:26:31.633Z,98891.04
2023-04-24T12:27:35.649Z,98893.89
2023-04-24T12:28:39.620Z,98897.33
2023-04-24T12:29:43.507Z,98900.92
2023-04-24T12:30:45.907Z,98893.57
2023-04-24T12:31:48.426Z,98893.23
2023-04-24T12:32:52.336Z,98894.45
2023-04-24T12:33:54.653Z,98894.45
2023-04-24T12:34:57.150Z,98895.93
2023-04-24T12:36:01.216Z,98899.72
2023-04-24T12:37:05.152Z,98896.23
2023-04-24T12:38:07.551Z,98902.61
2023-04-24T12:39:11.650Z,98894.05
2023-04-24T12:40:14.065Z,98899.94
2023-04-24T12:41:16.492Z,98887.81
2023-04-24T12:42:18.946Z,98890.88
2023-04-24T12:43:22.981Z,98890.94
2023-04-24T12:44:25.338Z,98886.51
2023-04-24T12:45:27.803Z,98888.11
2023-04-24T12:46:30.300Z,98882.08
2023-04-24T12:47:33.870Z,98885.50
2023-04-24T12:48:36.249Z,98888.05
2023-04-24T12:49:40.287Z,98886.41
2023-04-24T12:50:44.266Z,98898.41
2023-04-24T12:51:46.762Z,98881.37
2023-04-24T12:52:50.717Z,98886.66
2023-04-24T12:53:54.337Z,98885.34
2023-04-24T12:54:55.501Z,98898.20
2023-04-24T12:56:03.531Z,98889.01
2023-04-24T12:57:05.734Z,98887.32
2023-04-24T12:58:09.880Z,98897.66
2023-04-24T12:59:12.098Z,98900.41
2023-04-24T13:00:14.610Z,98904.06
2023-04-24T13:01:17.078Z,98903.80
2023-04-24T13:02:19.593Z,98907.61
2023-04-24T13:03:22.007Z,98896.35
2023-04-24T13:04:24.514Z,98899.92
2023-04-24T13:05:28.444Z,98898.03
2023-04-24T13:06:32.436Z,98902.31
2023-04-24T13:07:36.406Z,98896.70
2023-04-24T13:08:38.723Z,98892.97
2023-04-24T13:09:41.096Z,98904.43
2023-04-24T13:10:43.615Z,98900.45
2023-04-24T13:11:47.638Z,98905.81
2023-04-24T13:12:49.980Z,98905.75
2023-04-24T13:13:54.271Z,98911.72
2023-04-24T13:14:55.874Z,98909.64
2023-04-24T13:15:59.897Z,98913.16
2023-04-24T13:17:02.409Z,98909.82
2023-04-24T13:18:04.893Z,98921.47
2023-04-24T13:19:09.847Z,98912.95
2023-04-24T13:20:12.157Z,98909.72
2023-04-24T13:21:14.579Z,98909.64
2023-04-24T13:22:17.054Z,98912.11
2023-04-24T13:23:19.460Z,98907.97
2023-04-24T13:24:21.974Z,98920.19
2023-04-24T13:25:24.469Z,98905.04
2023-04-24T13:26:28.530Z,98902.86
2023-04-24T13:27:55.792Z,98895.20
2023-04-24T13:28:58.389Z,98905.05
2023-04-24T13:30:00.866Z,98902.17
2023-04-24T13:31:04.839Z,98903.51
2023-04-24T13:32:07.275Z,98896.77
2023-04-24T13:33:11.309Z,98899.65
2023-04-24T13:34:16.867Z,98904.16
2023-04-24T13:35:20.816Z,98906.66
2023-04-24T13:36:23.126Z,98896.42
2023-04-24T13:37:27.173Z,98892.81
2023-04-24T13:38:31.098Z,98897.09
2023-04-24T13:39:35.044Z,98904.23
2023-04-24T13:40:37.334Z,98909.11
2023-04-24T13:41:41.340Z,98904.34
2023-04-24T13:42:43.670Z,98904.80
2023-04-24T13:43:46.188Z,98909.75
2023-04-24T13:44:48.567Z,98912.50
2023-04-24T13:45:51.132Z,98914.99
2023-04-24T13:46:53.537Z,98912.79
2023-04-24T13:47:55.990Z,98913.77
2023-04-24T13:48:58.396Z,98916.83
2023-04-24T13:50:00.845Z,98912.97
2023-04-24T13:51:04.881Z,98913.08
2023-04-24T13:52:07.304Z,98914.02
2023-04-24T13:53:09.613Z,98912.41
2023-04-24T13:54:13.681Z,98909.18
2023-04-24T13:55:15.984Z,98913.00
2023-04-24T13:56:18.482Z,98915.73
2023-04-24T13:57:22.554Z,98913.70
2023-04-24T13:58:27.460Z,98919.58
2023-04-24T13:59:31.305Z,98916.88
2023-04-24T14:00:35.208Z,98920.34
2023-04-24T14:01:37.528Z,98915.80
2023-04-24T14:02:41.694Z,98918.30
2023-04-24T14:03:45.904Z,98917.82
2023-04-24T14:04:47.993Z,98928.00
2023-04-24T14:05:50.267Z,98911.51
2023-04-24T14:06:52.672Z,98912.53
2023-04-24T14:07:56.755Z,98915.34
2023-04-24T14:09:00.693Z,98916.97
2023-04-24T14:10:03.129Z,98909.28
2023-04-24T14:11:05.505Z,98910.04
2023-04-24T14:12:07.930Z,98910.98
2023-04-24T14:13:10.369Z,98915.19
2023-04-24T14:14:12.827Z,98909.08
2023-04-24T14:15:15.332Z,98909.95
2023-04-24T14:16:19.380Z,98913.39
2023-04-24T14:17:23.366Z,98913.80
2023-04-24T14:18:25.689Z,98919.53
2023-04-24T14:19:28.107Z,98922.75
2023-04-24T14:20:32.199Z,98916.93
2023-04-24T14:21:36.153Z,98926.88
2023-04-24T14:22:40.062Z,98914.41
2023-04-24T14:23:42.531Z,98920.93
2023-04-24T14:24:45.764Z,98916.73
2023-04-24T14:25:49.802Z,98929.44
2023-04-24T14:26:52.103Z,98920.55
2023-04-24T14:27:56.156Z,98925.06
2023-04-24T14:29:07.508Z,98923.20
2023-04-24T14:30:00.981Z,98913.89
2023-04-24T14:31:03.449Z,98918.22
2023-04-24T14:32:05.898Z,98909.43
2023-04-24T14:33:10.911Z,98912.39
2023-04-24T14:34:14.774Z,98915.95
2023-04-24T14:35:17.124Z,98912.96
2023-04-24T14:36:21.084Z,98906.25
2023-04-24T14:37:26.030Z,98915.07
2023-04-24T14:38:28.385Z,98903.73
2023-04-24T14:39:32.447Z,98896.23
2023-04-24T14:41:37.375Z,98901.11
2023-04-24T14:42:39.958Z,98910.14
2023-04-24T14:43:42.471Z,98910.20
2023-04-24T14:44:44.948Z,98917.83
2023-04-24T14:45:47.391Z,98918.47
2023-04-24T14:46:50.990Z,98915.06
2023-04-24T14:47:53.456Z,98914.39
2023-04-24T14:48:55.892Z,98918.69
2023-04-24T14:49:58.732Z,98916.55
2023-04-24T14:51:01.376Z,98920.55
2023-04-24T14:52:04.181Z,98917.63
2023-04-24T14:53:08.618Z,98921.05
2023-04-24T14:54:12.508Z,98908.64
2023-04-24T14:55:14.879Z,98914.00
2023-04-24T14:56:17.334Z,98910.28
2023-04-24T14:57:20.133Z,98912.02
2023-04-24T14:58:22.717Z,98913.48
2023-04-24T14:59:29.042Z,98918.27
2023-04-24T15:00:31.216Z,98916.32
2023-04-24T15:01:34.166Z,98921.28
2023-04-24T15:02:36.981Z,98920.12
2023-04-24T15:03:39.587Z,98919.00
2023-04-24T15:04:42.068Z,98926.15
2023-04-24T15:05:44.676Z,98920.08
2023-04-24T15:06:46.912Z,98922.88
2023-04-24T15:07:49.454Z,98926.45
2023-04-24T15:08:51.970Z,98918.95
2023-04-24T15:09:56.555Z,98913.15
2023-04-24T15:10:58.983Z,98914.50
2023-04-24T15:12:02.101Z,98908.80
2023-04-24T15:13:05.124Z,98907.39
2023-04-24T15:14:07.528Z,98909.24
2023-04-24T15:15:10.054Z,98903.16
2023-04-24T15:16:12.653Z,98913.20
2023-04-24T15:17:16.551Z,98904.27
2023-04-24T15:18:18.956Z,98900.73
2023-04-24T15:19:21.470Z,98903.57
2023-04-24T15:20:25.597Z,98906.91
2023-04-24T15:21:27.927Z,98908.30
2023-04-24T15:22:30.449Z,98908.63
2023-04-24T15:23:33.010Z,98915.88
2023-04-24T15:24:35.485Z,98919.03
2023-04-24T15:25:39.527Z,98918.34
2023-04-24T15:26:43.555Z,98921.44
2023-04-24T15:27:45.986Z,98927.13
2023-04-24T15:28:48.342Z,98925.81
2023-04-24T15:29:50.726Z,98929.23
2023-04-24T15:30:54.859Z,98927.96
2023-04-24T15:31:57.206Z,98926.88
2023-04-24T15:33:01.298Z,98925.05
2023-04-24T15:34:05.143Z,98932.52
2023-04-24T15:35:08.946Z,98923.28
2023-04-24T15:36:10.036Z,98930.48
2023-04-24T15:37:12.413Z,98925.20
2023-04-24T15:38:14.843Z,98926.16
2023-04-24T15:39:17.303Z,98930.96
2023-04-24T15:40:19.744Z,98933.25
2023-04-24T15:41:23.820Z,98922.48
2023-04-24T15:42:26.133Z,98925.14
2023-04-24T15:43:28.596Z,98925.23
2023-04-24T15:44:31.981Z,98925.46
2023-04-24T15:45:34.443Z,98920.45
2023-04-24T15:46:38.308Z,98927.41
2023-04-24T15:47:44.924Z,98925.95
2023-04-24T15:48:46.907Z,98915.28
2023-04-24T15:49:49.334Z,98918.64
2023-04-24T15:50:54.482Z,98930.39
2023-04-24T15:51:59.271Z,98925.66
2023-04-24T15:53:01.508Z,98927.35
2023-04-24T15:54:04.045Z,98928.38
2023-04-24T15:55:07.953Z,98928.69
2023-04-24T15:56:11.180Z,98928.52
2023-04-24T15:57:14.260Z,98932.70
2023-04-24T15:58:16.844Z,98925.80
2023-04-24T15:59:19.233Z,98936.88
2023-04-24T16:00:21.803Z,98933.46
2023-04-24T16:01:25.655Z,98931.00
2023-04-24T16:02:29.261Z,98933.55
2023-04-24T16:03:31.546Z,98931.23
2023-04-24T16:04:35.573Z,98937.56
2023-04-24T16:05:37.788Z,98935.33
2023-04-24T16:06:41.261Z,98945.08
2023-04-24T16:07:44.865Z,98937.08
2023-04-24T16:08:48.226Z,98941.98
2023-04-24T16:09:50.291Z,98940.92
2023-04-24T16:10:52.962Z,98939.22
2023-04-24T16:11:56.379Z,98925.73
2023-04-24T16:12:58.659Z,98926.52
2023-04-24T16:14:01.051Z,98927.95
2023-04-24T16:15:05.144Z,98931.45
2023-04-24T16:16:07.480Z,98932.02
2023-04-24T16:17:15.400Z,98927.52
2023-04-24T16:18:18.656Z,98928.77
2023-04-24T16:19:21.936Z,98929.41
2023-04-24T16:20:25.151Z,98923.58
2023-04-24T16:21:28.614Z,98922.73
2023-04-24T16:22:33.623Z,98920.77
2023-04-24T16:23:37.003Z,98924.60
2023-04-24T16:24:40.475Z,98924.27
2023-04-24T16:25:46.498Z,98919.98
2023-04-24T16:26:48.893Z,98921.13
2023-04-24T16:27:52.161Z,98923.55
2023-04-24T16:28:55.649Z,98921.92
2023-04-24T16:29:58.064Z,98926.94
2023-04-24T16:31:01.369Z,98931.52
2023-04-24T16:32:07.399Z,98930.85
2023-04-24T16:33:10.738Z,98929.00
2023-04-24T16:34:13.231Z,98934.81
2023-04-24T16:35:15.734Z,98932.75
2023-04-24T16:36:18.242Z,98938.11
2023-04-24T16:37:24.262Z,98941.31
2023-04-24T16:38:26.556Z,98936.19
2023-04-24T16:39:29.024Z,98935.48
2023-04-24T16:40:32.603Z,98935.17
2023-04-24T16:41:39.571Z,98933.50
2023-04-24T16:42:41.947Z,98933.69
2023-04-24T16:43:45.240Z,98941.53
2023-04-24T16:44:47.701Z,98935.34
2023-04-24T16:45:50.989Z,98937.40
2023-04-24T16:46:54.342Z,98933.13
2023-04-24T16:48:00.522Z,98939.02
2023-04-24T16:49:02.770Z,98938.34
2023-04-24T16:50:05.100Z,98943.88
2023-04-24T16:51:07.631Z,98945.36
2023-04-24T16:52:10.004Z,98947.25
2023-04-24T16:53:13.419Z,98953.00
2023-04-24T16:54:16.647Z,98953.89
2023-04-24T16:55:18.898Z,98952.64
2023-04-24T16:56:22.276Z,98955.94
2023-04-24T16:57:25.387Z,98955.52
2023-04-24T16:58:28.793Z,98955.24
2023-04-24T16:59:34.772Z,98960.71
2023-04-24T17:00:38.029Z,98959.41
2023-04-24T17:01:42.901Z,98967.30
2023-04-24T17:02:45.026Z,98963.67
2023-04-24T17:03:47.650Z,98974.83
2023-04-24T17:04:51.322Z,98984.97
2023-04-24T17:05:53.535Z,98984.72
2023-04-24T17:06:55.898Z,98986.43
2023-04-24T17:07:59.898Z,98990.55
2023-04-24T17:09:02.157Z,98990.48
2023-04-24T17:10:05.575Z,98987.78
2023-04-24T17:11:09.001Z,98985.96
2023-04-24T17:12:12.905Z,98986.52
2023-04-24T17:13:15.131Z,98984.58
2023-04-24T17:14:17.782Z,98988.38
2023-04-24T17:15:20.084Z,98981.38
2023-04-24T17:16:22.559Z,98976.94
2023-04-24T17:17:25.904Z,98981.08
2023-04-24T17:18:29.698Z,98984.99
2023-04-24T17:19:33.580Z,98993.59
2023-04-24T17:20:35.970Z,98989.55
2023-04-24T17:21:38.386Z,98986.76
2023-04-24T17:31:09.462Z,98993.44
2023-04-24T17:32:12.025Z,98995.49
2023-04-24T17:33:16.940Z,98998.27
2023-04-24T17:42:46.384Z,98996.20
2023-04-24T17:43:48.898Z,98993.22
2023-04-24T17:44:52.838Z,98987.85
2023-04-24T17:45:56.400Z,98994.75
2023-04-24T17:46:58.538Z,98994.33
2023-04-24T17:48:00.985Z,98989.06
2023-04-24T17:49:03.281Z,98987.80
2023-04-24T17:58:35.068Z,98985.02
2023-04-24T18:08:07.263Z,98992.72
2023-04-24T18:09:09.553Z,98992.10
2023-04-24T18:10:11.964Z,98990.53
2023-04-24T18:19:42.986Z,98992.46
2023-04-24T18:29:12.535Z,99006.81
2023-04-24T18:38:43.403Z,99005.39
2023-04-24T18:48:10.768Z,99013.56
2023-04-24T18:57:41.612Z,99023.21
2023-04-24T19:07:12.888Z,99025.76
2023-04-24T19:16:44.025Z,99030.44
2023-04-24T19:26:17.076Z,99038.89
2023-04-24T19:35:53.217Z,99045.99
2023-04-24T19:45:25.874Z,99040.94
2023-04-24T19:54:59.986Z,99041.48
2023-04-24T20:04:30.738Z,99045.08
2023-04-24T20:14:01.437Z,99049.09
2023-04-24T20:23:34.176Z,99034.96
2023-04-24T20:33:01.575Z,99028.20
2023-04-24T20:42:34.859Z,99032.88
2023-04-24T20:52:04.093Z,99036.85
2023-04-24T21:01:45.189Z,99036.61
2023-04-24T21:02:46.908Z,99038.09
2023-04-24T21:12:17.580Z,99028.39
2023-04-24T21:21:50.227Z,99025.25
2023-04-24T21:31:20.511Z,99023.66
2023-04-24T21:40:52.764Z,99030.75
2023-04-24T21:50:23.593Z,99022.22
2023-04-24T21:51:30.821Z,99032.95
2023-04-24T22:01:00.790Z,99026.58
2023-04-24T22:10:32.663Z,99028.59
2023-04-24T22:30:03.502Z,99019.60
2023-04-24T22:49:44.395Z,99010.95
2023-04-24T22:52:48.659Z,99005.92
2023-04-24T22:54:23.837Z,99003.30
2023-04-24T22:55:53.861Z,99003.41
2023-04-24T23:26:20.011Z,99008.02
2023-04-24T23:29:00.354Z,99000.63
2023-04-24T23:58:13.811Z,98991.05
